sensor_id;sensor_type;location;lat;lon;timestamp;P1;durP1;ratioP1;P2;durP2;ratioP2
10586;SDS011;5341;47.606;7.576;2022-11-22T00:00:52;4.45;;;2.28;;
10586;SDS011;5341;47.606;7.576;2022-11-22T00:03:20;6.03;;;2.22;;
10586;SDS011;5341;47.606;7.576;2022-11-22T00:05:49;3.35;;;2.13;;
10586;SDS011;5341;47.606;7.576;2022-11-22T00:08:16;4.43;;;1.90;;
10586;SDS011;5341;47.606;7.576;2022-11-22T00:10:46;4.70;;;2.05;;
10586;SDS011;5341;47.606;7.576;2022-11-22T00:13:15;5.35;;;2.33;;
10586;SDS011;5341;47.606;7.576;2022-11-22T00:15:43;6.28;;;2.28;;
10586;SDS011;5341;47.606;7.576;2022-11-22T00:18:11;5.25;;;2.05;;
10586;SDS011;5341;47.606;7.576;2022-11-22T00:20:39;4.50;;;1.90;;
10586;SDS011;5341;47.606;7.576;2022-11-22T00:23:06;7.32;;;1.95;;
10586;SDS011;5341;47.606;7.576;2022-11-22T00:25:34;6.03;;;2.13;;
10586;SDS011;5341;47.606;7.576;2022-11-22T00:28:03;5.95;;;1.80;;
10586;SDS011;5341;47.606;7.576;2022-11-22T00:30:31;5.53;;;2.20;;
10586;SDS011;5341;47.606;7.576;2022-11-22T00:32:59;4.70;;;1.92;;
10586;SDS011;5341;47.606;7.576;2022-11-22T00:35:26;4.22;;;2.05;;
10586;SDS011;5341;47.606;7.576;2022-11-22T00:37:58;4.95;;;1.90;;
10586;SDS011;5341;47.606;7.576;2022-11-22T00:40:27;3.95;;;1.88;;
10586;SDS011;5341;47.606;7.576;2022-11-22T00:42:55;8.57;;;2.08;;
10586;SDS011;5341;47.606;7.576;2022-11-22T00:45:27;5.15;;;2.13;;
10586;SDS011;5341;47.606;7.576;2022-11-22T00:47:54;5.95;;;2.03;;
10586;SDS011;5341;47.606;7.576;2022-11-22T00:50:24;3.90;;;1.90;;
10586;SDS011;5341;47.606;7.576;2022-11-22T00:52:51;4.68;;;1.90;;
10586;SDS011;5341;47.606;7.576;2022-11-22T00:55:21;4.38;;;1.88;;
10586;SDS011;5341;47.606;7.576;2022-11-22T00:57:49;5.25;;;1.95;;
10586;SDS011;5341;47.606;7.576;2022-11-22T01:00:17;6.93;;;2.05;;
10586;SDS011;5341;47.606;7.576;2022-11-22T01:02:46;7.65;;;2.03;;
10586;SDS011;5341;47.606;7.576;2022-11-22T01:05:15;7.97;;;2.20;;
10586;SDS011;5341;47.606;7.576;2022-11-22T01:07:46;4.32;;;2.00;;
10586;SDS011;5341;47.606;7.576;2022-11-22T01:10:15;4.20;;;2.10;;
10586;SDS011;5341;47.606;7.576;2022-11-22T01:12:44;6.95;;;2.42;;
10586;SDS011;5341;47.606;7.576;2022-11-22T01:15:12;5.53;;;2.40;;
10586;SDS011;5341;47.606;7.576;2022-11-22T01:17:40;7.90;;;2.35;;
10586;SDS011;5341;47.606;7.576;2022-11-22T01:20:15;7.07;;;2.22;;
10586;SDS011;5341;47.606;7.576;2022-11-22T01:22:46;7.25;;;2.13;;
10586;SDS011;5341;47.606;7.576;2022-11-22T01:25:16;7.05;;;2.20;;
10586;SDS011;5341;47.606;7.576;2022-11-22T01:27:49;7.88;;;2.17;;
10586;SDS011;5341;47.606;7.576;2022-11-22T01:30:18;6.55;;;2.10;;
10586;SDS011;5341;47.606;7.576;2022-11-22T01:32:46;12.45;;;2.60;;
10586;SDS011;5341;47.606;7.576;2022-11-22T01:35:16;7.32;;;2.13;;
10586;SDS011;5341;47.606;7.576;2022-11-22T01:37:45;5.25;;;2.05;;
10586;SDS011;5341;47.606;7.576;2022-11-22T01:40:13;6.47;;;2.25;;
10586;SDS011;5341;47.606;7.576;2022-11-22T01:42:41;5.80;;;1.90;;
10586;SDS011;5341;47.606;7.576;2022-11-22T01:48:13;8.25;;;2.38;;
10586;SDS011;5341;47.606;7.576;2022-11-22T01:50:48;6.88;;;2.08;;
10586;SDS011;5341;47.606;7.576;2022-11-22T01:53:21;7.35;;;2.30;;
10586;SDS011;5341;47.606;7.576;2022-11-22T01:55:55;7.70;;;2.53;;
10586;SDS011;5341;47.606;7.576;2022-11-22T01:58:26;4.82;;;2.17;;
10586;SDS011;5341;47.606;7.576;2022-11-22T02:00:57;5.22;;;2.08;;
10586;SDS011;5341;47.606;7.576;2022-11-22T02:03:25;8.80;;;2.20;;
10586;SDS011;5341;47.606;7.576;2022-11-22T02:05:57;8.07;;;2.17;;
10586;SDS011;5341;47.606;7.576;2022-11-22T02:08:27;6.38;;;2.20;;
10586;SDS011;5341;47.606;7.576;2022-11-22T02:11:02;5.93;;;2.22;;
10586;SDS011;5341;47.606;7.576;2022-11-22T02:13:33;6.25;;;2.00;;
10586;SDS011;5341;47.606;7.576;2022-11-22T02:16:04;5.55;;;1.92;;
10586;SDS011;5341;47.606;7.576;2022-11-22T02:18:33;6.68;;;2.30;;
10586;SDS011;5341;47.606;7.576;2022-11-22T02:21:03;4.03;;;1.88;;
10586;SDS011;5341;47.606;7.576;2022-11-22T02:23:35;9.82;;;2.55;;
10586;SDS011;5341;47.606;7.576;2022-11-22T02:26:14;7.65;;;2.30;;
10586;SDS011;5341;47.606;7.576;2022-11-22T02:28:42;4.97;;;2.00;;
10586;SDS011;5341;47.606;7.576;2022-11-22T02:34:07;10.30;;;2.20;;
10586;SDS011;5341;47.606;7.576;2022-11-22T02:36:38;8.88;;;2.40;;
10586;SDS011;5341;47.606;7.576;2022-11-22T02:39:11;6.57;;;2.40;;
10586;SDS011;5341;47.606;7.576;2022-11-22T02:41:46;8.18;;;2.13;;
10586;SDS011;5341;47.606;7.576;2022-11-22T02:44:16;5.60;;;2.10;;
10586;SDS011;5341;47.606;7.576;2022-11-22T02:46:47;9.15;;;2.40;;
10586;SDS011;5341;47.606;7.576;2022-11-22T02:49:16;8.27;;;2.10;;
10586;SDS011;5341;47.606;7.576;2022-11-22T02:51:51;6.25;;;1.98;;
10586;SDS011;5341;47.606;7.576;2022-11-22T02:54:22;7.88;;;2.78;;
10586;SDS011;5341;47.606;7.576;2022-11-22T02:56:53;8.05;;;2.80;;
10586;SDS011;5341;47.606;7.576;2022-11-22T02:59:20;5.28;;;1.80;;
10586;SDS011;5341;47.606;7.576;2022-11-22T03:01:48;7.18;;;2.50;;
10586;SDS011;5341;47.606;7.576;2022-11-22T03:04:17;7.15;;;2.47;;
10586;SDS011;5341;47.606;7.576;2022-11-22T03:06:54;7.85;;;2.20;;
10586;SDS011;5341;47.606;7.576;2022-11-22T03:09:24;8.50;;;2.22;;
10586;SDS011;5341;47.606;7.576;2022-11-22T03:11:54;7.68;;;2.30;;
10586;SDS011;5341;47.606;7.576;2022-11-22T03:14:23;7.53;;;2.50;;
10586;SDS011;5341;47.606;7.576;2022-11-22T03:16:51;7.00;;;2.33;;
10586;SDS011;5341;47.606;7.576;2022-11-22T03:19:19;7.82;;;2.47;;
10586;SDS011;5341;47.606;7.576;2022-11-22T03:21:47;5.07;;;2.15;;
10586;SDS011;5341;47.606;7.576;2022-11-22T03:24:15;6.40;;;2.45;;
10586;SDS011;5341;47.606;7.576;2022-11-22T03:26:45;8.70;;;2.58;;
10586;SDS011;5341;47.606;7.576;2022-11-22T03:29:15;6.63;;;2.20;;
10586;SDS011;5341;47.606;7.576;2022-11-22T03:31:43;5.30;;;2.17;;
10586;SDS011;5341;47.606;7.576;2022-11-22T03:34:11;8.38;;;2.25;;
10586;SDS011;5341;47.606;7.576;2022-11-22T03:36:41;7.18;;;2.33;;
10586;SDS011;5341;47.606;7.576;2022-11-22T03:39:09;6.10;;;2.22;;
10586;SDS011;5341;47.606;7.576;2022-11-22T03:41:36;5.45;;;2.00;;
10586;SDS011;5341;47.606;7.576;2022-11-22T03:44:04;6.30;;;2.30;;
10586;SDS011;5341;47.606;7.576;2022-11-22T03:46:35;6.60;;;2.33;;
10586;SDS011;5341;47.606;7.576;2022-11-22T03:49:03;9.10;;;2.40;;
10586;SDS011;5341;47.606;7.576;2022-11-22T03:51:31;7.40;;;2.15;;
10586;SDS011;5341;47.606;7.576;2022-11-22T03:53:59;7.45;;;2.25;;
10586;SDS011;5341;47.606;7.576;2022-11-22T03:56:27;5.70;;;1.88;;
10586;SDS011;5341;47.606;7.576;2022-11-22T03:58:55;4.32;;;1.80;;
10586;SDS011;5341;47.606;7.576;2022-11-22T04:01:22;4.97;;;1.85;;
10586;SDS011;5341;47.606;7.576;2022-11-22T04:03:58;6.63;;;2.15;;
10586;SDS011;5341;47.606;7.576;2022-11-22T04:06:25;6.70;;;2.40;;
10586;SDS011;5341;47.606;7.576;2022-11-22T04:08:53;5.80;;;2.17;;
10586;SDS011;5341;47.606;7.576;2022-11-22T04:11:21;5.65;;;2.03;;
10586;SDS011;5341;47.606;7.576;2022-11-22T04:13:51;6.38;;;2.33;;
10586;SDS011;5341;47.606;7.576;2022-11-22T04:16:39;7.13;;;2.13;;
10586;SDS011;5341;47.606;7.576;2022-11-22T04:19:08;4.43;;;1.83;;
10586;SDS011;5341;47.606;7.576;2022-11-22T04:21:36;8.45;;;2.35;;
10586;SDS011;5341;47.606;7.576;2022-11-22T04:24:06;5.78;;;2.22;;
10586;SDS011;5341;47.606;7.576;2022-11-22T04:27:01;6.38;;;2.05;;
10586;SDS011;5341;47.606;7.576;2022-11-22T04:29:30;6.97;;;2.58;;
10586;SDS011;5341;47.606;7.576;2022-11-22T04:31:59;8.70;;;2.35;;
10586;SDS011;5341;47.606;7.576;2022-11-22T04:34:45;6.13;;;2.20;;
10586;SDS011;5341;47.606;7.576;2022-11-22T04:37:13;8.93;;;2.45;;
10586;SDS011;5341;47.606;7.576;2022-11-22T04:39:43;7.80;;;2.55;;
10586;SDS011;5341;47.606;7.576;2022-11-22T04:42:11;5.25;;;2.10;;
10586;SDS011;5341;47.606;7.576;2022-11-22T04:44:56;7.30;;;2.13;;
10586;SDS011;5341;47.606;7.576;2022-11-22T04:47:24;6.63;;;2.45;;
10586;SDS011;5341;47.606;7.576;2022-11-22T04:50:11;8.40;;;2.92;;
10586;SDS011;5341;47.606;7.576;2022-11-22T04:52:56;8.10;;;2.40;;
10586;SDS011;5341;47.606;7.576;2022-11-22T04:55:24;7.00;;;2.20;;
10586;SDS011;5341;47.606;7.576;2022-11-22T04:57:52;5.90;;;2.17;;
10586;SDS011;5341;47.606;7.576;2022-11-22T05:00:22;5.28;;;2.10;;
10586;SDS011;5341;47.606;7.576;2022-11-22T05:02:52;4.25;;;1.92;;
10586;SDS011;5341;47.606;7.576;2022-11-22T05:05:22;5.22;;;1.88;;
10586;SDS011;5341;47.606;7.576;2022-11-22T05:07:51;6.60;;;2.25;;
10586;SDS011;5341;47.606;7.576;2022-11-22T05:10:19;5.07;;;2.10;;
10586;SDS011;5341;47.606;7.576;2022-11-22T05:12:46;7.18;;;2.33;;
10586;SDS011;5341;47.606;7.576;2022-11-22T05:15:14;5.75;;;2.20;;
10586;SDS011;5341;47.606;7.576;2022-11-22T05:17:53;4.45;;;2.00;;
10586;SDS011;5341;47.606;7.576;2022-11-22T05:20:30;5.22;;;2.00;;
10586;SDS011;5341;47.606;7.576;2022-11-22T05:22:58;7.63;;;1.98;;
10586;SDS011;5341;47.606;7.576;2022-11-22T05:25:44;5.35;;;1.98;;
10586;SDS011;5341;47.606;7.576;2022-11-22T05:28:11;5.30;;;2.42;;
10586;SDS011;5341;47.606;7.576;2022-11-22T05:30:39;7.57;;;2.40;;
10586;SDS011;5341;47.606;7.576;2022-11-22T05:33:08;4.55;;;1.80;;
10586;SDS011;5341;47.606;7.576;2022-11-22T05:35:39;5.88;;;2.13;;
10586;SDS011;5341;47.606;7.576;2022-11-22T05:38:08;8.13;;;2.38;;
10586;SDS011;5341;47.606;7.576;2022-11-22T05:40:36;4.25;;;1.88;;
10586;SDS011;5341;47.606;7.576;2022-11-22T05:43:03;6.22;;;2.35;;
10586;SDS011;5341;47.606;7.576;2022-11-22T05:45:32;6.03;;;2.05;;
10586;SDS011;5341;47.606;7.576;2022-11-22T05:48:01;4.10;;;1.80;;
10586;SDS011;5341;47.606;7.576;2022-11-22T05:50:28;7.43;;;2.00;;
10586;SDS011;5341;47.606;7.576;2022-11-22T05:53:02;6.88;;;2.17;;
10586;SDS011;5341;47.606;7.576;2022-11-22T05:55:30;3.92;;;1.90;;
10586;SDS011;5341;47.606;7.576;2022-11-22T05:57:58;4.85;;;2.08;;
10586;SDS011;5341;47.606;7.576;2022-11-22T06:00:30;5.22;;;2.10;;
10586;SDS011;5341;47.606;7.576;2022-11-22T06:03:01;6.65;;;2.20;;
10586;SDS011;5341;47.606;7.576;2022-11-22T06:05:31;5.68;;;2.10;;
10586;SDS011;5341;47.606;7.576;2022-11-22T06:08:02;5.82;;;2.38;;
10586;SDS011;5341;47.606;7.576;2022-11-22T06:10:30;8.50;;;2.40;;
10586;SDS011;5341;47.606;7.576;2022-11-22T06:13:02;3.35;;;1.90;;
10586;SDS011;5341;47.606;7.576;2022-11-22T06:15:31;4.85;;;2.33;;
10586;SDS011;5341;47.606;7.576;2022-11-22T06:17:59;7.47;;;2.13;;
10586;SDS011;5341;47.606;7.576;2022-11-22T06:20:27;5.85;;;2.40;;
10586;SDS011;5341;47.606;7.576;2022-11-22T06:22:56;6.30;;;2.17;;
10586;SDS011;5341;47.606;7.576;2022-11-22T06:25:26;5.68;;;2.40;;
10586;SDS011;5341;47.606;7.576;2022-11-22T06:27:57;5.18;;;1.70;;
10586;SDS011;5341;47.606;7.576;2022-11-22T06:30:26;7.00;;;2.28;;
10586;SDS011;5341;47.606;7.576;2022-11-22T06:32:53;6.20;;;2.10;;
10586;SDS011;5341;47.606;7.576;2022-11-22T06:35:24;8.38;;;2.20;;
10586;SDS011;5341;47.606;7.576;2022-11-22T06:37:52;5.53;;;1.83;;
10586;SDS011;5341;47.606;7.576;2022-11-22T06:40:19;5.05;;;2.17;;
10586;SDS011;5341;47.606;7.576;2022-11-22T06:42:49;6.05;;;2.33;;
10586;SDS011;5341;47.606;7.576;2022-11-22T06:45:18;6.82;;;2.45;;
10586;SDS011;5341;47.606;7.576;2022-11-22T06:47:46;4.38;;;1.98;;
10586;SDS011;5341;47.606;7.576;2022-11-22T06:50:14;4.85;;;2.30;;
10586;SDS011;5341;47.606;7.576;2022-11-22T06:52:41;5.63;;;2.30;;
10586;SDS011;5341;47.606;7.576;2022-11-22T06:55:10;5.55;;;2.40;;
10586;SDS011;5341;47.606;7.576;2022-11-22T06:57:38;4.20;;;1.83;;
10586;SDS011;5341;47.606;7.576;2022-11-22T07:00:08;8.18;;;2.00;;
10586;SDS011;5341;47.606;7.576;2022-11-22T07:02:41;3.95;;;2.00;;
10586;SDS011;5341;47.606;7.576;2022-11-22T07:05:10;6.80;;;1.88;;
10586;SDS011;5341;47.606;7.576;2022-11-22T07:07:38;8.55;;;1.90;;
10586;SDS011;5341;47.606;7.576;2022-11-22T07:10:06;5.63;;;2.10;;
10586;SDS011;5341;47.606;7.576;2022-11-22T07:12:34;5.32;;;2.20;;
10586;SDS011;5341;47.606;7.576;2022-11-22T07:15:02;7.30;;;2.72;;
10586;SDS011;5341;47.606;7.576;2022-11-22T07:17:31;6.70;;;3.30;;
10586;SDS011;5341;47.606;7.576;2022-11-22T07:19:59;7.88;;;3.33;;
10586;SDS011;5341;47.606;7.576;2022-11-22T07:22:27;6.50;;;3.30;;
10586;SDS011;5341;47.606;7.576;2022-11-22T07:24:55;7.38;;;3.58;;
10586;SDS011;5341;47.606;7.576;2022-11-22T07:27:23;7.45;;;3.42;;
10586;SDS011;5341;47.606;7.576;2022-11-22T07:29:51;5.60;;;3.17;;
10586;SDS011;5341;47.606;7.576;2022-11-22T07:32:18;6.25;;;3.13;;
10586;SDS011;5341;47.606;7.576;2022-11-22T07:34:50;6.35;;;3.03;;
10586;SDS011;5341;47.606;7.576;2022-11-22T07:37:18;8.98;;;3.83;;
10586;SDS011;5341;47.606;7.576;2022-11-22T07:39:45;8.32;;;3.03;;
10586;SDS011;5341;47.606;7.576;2022-11-22T07:42:13;6.85;;;2.95;;
10586;SDS011;5341;47.606;7.576;2022-11-22T07:44:42;8.13;;;3.08;;
10586;SDS011;5341;47.606;7.576;2022-11-22T07:47:10;5.35;;;2.65;;
10586;SDS011;5341;47.606;7.576;2022-11-22T07:49:38;6.88;;;2.83;;
10586;SDS011;5341;47.606;7.576;2022-11-22T07:52:07;6.72;;;2.50;;
10586;SDS011;5341;47.606;7.576;2022-11-22T07:54:35;5.43;;;2.97;;
10586;SDS011;5341;47.606;7.576;2022-11-22T07:57:03;7.20;;;3.20;;
10586;SDS011;5341;47.606;7.576;2022-11-22T07:59:38;5.30;;;2.50;;
10586;SDS011;5341;47.606;7.576;2022-11-22T08:02:09;6.60;;;2.60;;
10586;SDS011;5341;47.606;7.576;2022-11-22T08:04:37;6.43;;;2.45;;
10586;SDS011;5341;47.606;7.576;2022-11-22T08:07:08;7.22;;;2.78;;
10586;SDS011;5341;47.606;7.576;2022-11-22T08:09:39;7.45;;;2.85;;
10586;SDS011;5341;47.606;7.576;2022-11-22T08:12:08;5.30;;;2.42;;
10586;SDS011;5341;47.606;7.576;2022-11-22T08:14:36;5.25;;;2.33;;
10586;SDS011;5341;47.606;7.576;2022-11-22T08:17:04;4.35;;;2.45;;
10586;SDS011;5341;47.606;7.576;2022-11-22T08:19:38;5.13;;;2.30;;
10586;SDS011;5341;47.606;7.576;2022-11-22T08:22:20;5.20;;;2.35;;
10586;SDS011;5341;47.606;7.576;2022-11-22T08:24:48;5.22;;;2.58;;
10586;SDS011;5341;47.606;7.576;2022-11-22T08:27:16;4.10;;;2.15;;
10586;SDS011;5341;47.606;7.576;2022-11-22T08:29:48;5.18;;;2.30;;
10586;SDS011;5341;47.606;7.576;2022-11-22T08:32:15;6.00;;;2.20;;
10586;SDS011;5341;47.606;7.576;2022-11-22T08:34:47;6.53;;;2.70;;
10586;SDS011;5341;47.606;7.576;2022-11-22T08:37:16;3.92;;;2.00;;
10586;SDS011;5341;47.606;7.576;2022-11-22T08:39:46;6.20;;;2.63;;
10586;SDS011;5341;47.606;7.576;2022-11-22T08:42:14;6.13;;;2.22;;
10586;SDS011;5341;47.606;7.576;2022-11-22T08:44:42;4.65;;;2.20;;
10586;SDS011;5341;47.606;7.576;2022-11-22T08:47:10;4.40;;;2.30;;
10586;SDS011;5341;47.606;7.576;2022-11-22T08:49:39;5.70;;;2.60;;
10586;SDS011;5341;47.606;7.576;2022-11-22T08:52:08;4.18;;;2.30;;
10586;SDS011;5341;47.606;7.576;2022-11-22T08:57:28;4.70;;;2.33;;
10586;SDS011;5341;47.606;7.576;2022-11-22T08:59:57;3.58;;;2.20;;
10586;SDS011;5341;47.606;7.576;2022-11-22T09:02:25;4.53;;;2.03;;
10586;SDS011;5341;47.606;7.576;2022-11-22T09:04:56;4.68;;;2.05;;
10586;SDS011;5341;47.606;7.576;2022-11-22T09:07:24;5.00;;;2.00;;
10586;SDS011;5341;47.606;7.576;2022-11-22T09:09:54;4.63;;;2.22;;
10586;SDS011;5341;47.606;7.576;2022-11-22T09:12:24;5.05;;;2.40;;
10586;SDS011;5341;47.606;7.576;2022-11-22T09:14:52;4.63;;;1.88;;
10586;SDS011;5341;47.606;7.576;2022-11-22T09:17:23;4.18;;;2.03;;
10586;SDS011;5341;47.606;7.576;2022-11-22T09:19:54;3.65;;;1.77;;
10586;SDS011;5341;47.606;7.576;2022-11-22T09:22:30;4.35;;;1.85;;
10586;SDS011;5341;47.606;7.576;2022-11-22T09:25:00;6.40;;;2.28;;
10586;SDS011;5341;47.606;7.576;2022-11-22T09:27:36;3.70;;;1.77;;
10586;SDS011;5341;47.606;7.576;2022-11-22T09:30:04;3.47;;;1.70;;
10586;SDS011;5341;47.606;7.576;2022-11-22T09:32:35;4.47;;;1.85;;
10586;SDS011;5341;47.606;7.576;2022-11-22T09:35:03;6.68;;;2.83;;
10586;SDS011;5341;47.606;7.576;2022-11-22T09:37:36;6.40;;;2.50;;
10586;SDS011;5341;47.606;7.576;2022-11-22T09:40:05;5.93;;;2.45;;
10586;SDS011;5341;47.606;7.576;2022-11-22T09:42:38;6.13;;;2.30;;
10586;SDS011;5341;47.606;7.576;2022-11-22T09:48:10;4.70;;;1.80;;
10586;SDS011;5341;47.606;7.576;2022-11-22T09:51:04;3.45;;;1.58;;
10586;SDS011;5341;47.606;7.576;2022-11-22T09:53:37;4.00;;;1.65;;
10586;SDS011;5341;47.606;7.576;2022-11-22T09:56:10;4.60;;;1.77;;
10586;SDS011;5341;47.606;7.576;2022-11-22T09:58:45;5.50;;;1.80;;
10586;SDS011;5341;47.606;7.576;2022-11-22T10:01:19;5.82;;;1.75;;
10586;SDS011;5341;47.606;7.576;2022-11-22T10:03:52;2.50;;;1.25;;
10586;SDS011;5341;47.606;7.576;2022-11-22T10:06:28;5.18;;;1.90;;
10586;SDS011;5341;47.606;7.576;2022-11-22T10:09:03;6.03;;;1.50;;
10586;SDS011;5341;47.606;7.576;2022-11-22T10:11:41;4.70;;;1.60;;
10586;SDS011;5341;47.606;7.576;2022-11-22T10:14:20;2.72;;;1.50;;
10586;SDS011;5341;47.606;7.576;2022-11-22T10:16:55;2.88;;;1.38;;
10586;SDS011;5341;47.606;7.576;2022-11-22T10:19:31;5.50;;;1.98;;
10586;SDS011;5341;47.606;7.576;2022-11-22T10:22:10;2.90;;;1.45;;
10586;SDS011;5341;47.606;7.576;2022-11-22T10:24:40;5.07;;;1.50;;
10586;SDS011;5341;47.606;7.576;2022-11-22T10:27:10;2.60;;;1.25;;
10586;SDS011;5341;47.606;7.576;2022-11-22T10:29:41;3.20;;;1.50;;
10586;SDS011;5341;47.606;7.576;2022-11-22T10:32:17;4.07;;;1.50;;
10586;SDS011;5341;47.606;7.576;2022-11-22T10:34:57;3.05;;;1.35;;
10586;SDS011;5341;47.606;7.576;2022-11-22T10:37:39;3.28;;;1.45;;
10586;SDS011;5341;47.606;7.576;2022-11-22T10:40:18;3.88;;;1.50;;
10586;SDS011;5341;47.606;7.576;2022-11-22T10:42:55;5.78;;;1.40;;
10586;SDS011;5341;47.606;7.576;2022-11-22T10:45:51;3.60;;;1.60;;
10586;SDS011;5341;47.606;7.576;2022-11-22T10:48:27;2.65;;;1.50;;
10586;SDS011;5341;47.606;7.576;2022-11-22T10:51:03;2.03;;;1.20;;
10586;SDS011;5341;47.606;7.576;2022-11-22T10:53:42;6.13;;;1.77;;
10586;SDS011;5341;47.606;7.576;2022-11-22T10:56:20;3.80;;;1.35;;
10586;SDS011;5341;47.606;7.576;2022-11-22T11:01:49;4.45;;;1.73;;
10586;SDS011;5341;47.606;7.576;2022-11-22T11:04:29;2.83;;;1.58;;
10586;SDS011;5341;47.606;7.576;2022-11-22T11:07:02;4.35;;;1.60;;
10586;SDS011;5341;47.606;7.576;2022-11-22T11:09:44;4.18;;;1.55;;
10586;SDS011;5341;47.606;7.576;2022-11-22T11:12:14;1.90;;;1.10;;
10586;SDS011;5341;47.606;7.576;2022-11-22T11:14:47;1.48;;;1.10;;
10586;SDS011;5341;47.606;7.576;2022-11-22T11:17:22;1.83;;;1.27;;
10586;SDS011;5341;47.606;7.576;2022-11-22T11:19:54;1.98;;;1.10;;
10586;SDS011;5341;47.606;7.576;2022-11-22T11:22:27;2.38;;;1.33;;
10586;SDS011;5341;47.606;7.576;2022-11-22T11:27:54;2.10;;;1.20;;
10586;SDS011;5341;47.606;7.576;2022-11-22T11:30:25;2.65;;;0.95;;
10586;SDS011;5341;47.606;7.576;2022-11-22T11:32:54;2.75;;;1.10;;
10586;SDS011;5341;47.606;7.576;2022-11-22T11:35:24;2.17;;;1.15;;
10586;SDS011;5341;47.606;7.576;2022-11-22T11:37:54;3.20;;;1.17;;
10586;SDS011;5341;47.606;7.576;2022-11-22T11:40:26;2.05;;;1.15;;
10586;SDS011;5341;47.606;7.576;2022-11-22T11:45:41;2.78;;;1.17;;
10586;SDS011;5341;47.606;7.576;2022-11-22T11:48:34;2.35;;;1.20;;
10586;SDS011;5341;47.606;7.576;2022-11-22T11:51:06;1.08;;;0.90;;
10586;SDS011;5341;47.606;7.576;2022-11-22T11:53:40;1.92;;;1.00;;
10586;SDS011;5341;47.606;7.576;2022-11-22T11:56:31;1.48;;;1.10;;
10586;SDS011;5341;47.606;7.576;2022-11-22T11:59:10;2.47;;;1.00;;
10586;SDS011;5341;47.606;7.576;2022-11-22T12:01:46;2.17;;;1.30;;
10586;SDS011;5341;47.606;7.576;2022-11-22T12:04:21;1.58;;;1.10;;
10586;SDS011;5341;47.606;7.576;2022-11-22T12:06:53;2.65;;;1.10;;
10586;SDS011;5341;47.606;7.576;2022-11-22T12:09:27;2.65;;;1.20;;
10586;SDS011;5341;47.606;7.576;2022-11-22T12:12:02;4.13;;;1.50;;
10586;SDS011;5341;47.606;7.576;2022-11-22T12:14:56;2.42;;;1.10;;
10586;SDS011;5341;47.606;7.576;2022-11-22T12:17:38;3.15;;;1.15;;
10586;SDS011;5341;47.606;7.576;2022-11-22T12:20:16;2.83;;;1.00;;
10586;SDS011;5341;47.606;7.576;2022-11-22T12:22:50;2.22;;;1.27;;
10586;SDS011;5341;47.606;7.576;2022-11-22T12:25:31;2.40;;;1.30;;
10586;SDS011;5341;47.606;7.576;2022-11-22T12:28:20;2.22;;;1.30;;
10586;SDS011;5341;47.606;7.576;2022-11-22T12:30:51;1.67;;;1.08;;
10586;SDS011;5341;47.606;7.576;2022-11-22T12:33:26;4.05;;;1.55;;
10586;SDS011;5341;47.606;7.576;2022-11-22T12:35:58;2.35;;;1.50;;
10586;SDS011;5341;47.606;7.576;2022-11-22T12:38:31;3.00;;;1.40;;
10586;SDS011;5341;47.606;7.576;2022-11-22T12:41:03;3.00;;;1.20;;
10586;SDS011;5341;47.606;7.576;2022-11-22T12:43:35;2.70;;;1.60;;
10586;SDS011;5341;47.606;7.576;2022-11-22T12:46:08;1.83;;;1.20;;
10586;SDS011;5341;47.606;7.576;2022-11-22T12:48:40;2.05;;;1.30;;
10586;SDS011;5341;47.606;7.576;2022-11-22T12:51:16;2.55;;;1.23;;
10586;SDS011;5341;47.606;7.576;2022-11-22T12:53:49;4.50;;;1.60;;
10586;SDS011;5341;47.606;7.576;2022-11-22T12:56:23;2.53;;;1.17;;
10586;SDS011;5341;47.606;7.576;2022-11-22T12:58:59;3.20;;;1.20;;
10586;SDS011;5341;47.606;7.576;2022-11-22T13:01:37;2.97;;;1.40;;
10586;SDS011;5341;47.606;7.576;2022-11-22T13:04:20;3.05;;;1.52;;
10586;SDS011;5341;47.606;7.576;2022-11-22T13:07:00;2.22;;;1.30;;
10586;SDS011;5341;47.606;7.576;2022-11-22T13:09:39;1.67;;;1.30;;
10586;SDS011;5341;47.606;7.576;2022-11-22T13:12:16;2.97;;;1.27;;
10586;SDS011;5341;47.606;7.576;2022-11-22T13:14:57;3.65;;;1.77;;
10586;SDS011;5341;47.606;7.576;2022-11-22T13:17:29;2.53;;;1.20;;
10586;SDS011;5341;47.606;7.576;2022-11-22T13:20:06;2.25;;;1.33;;
10586;SDS011;5341;47.606;7.576;2022-11-22T13:22:45;2.40;;;1.30;;
10586;SDS011;5341;47.606;7.576;2022-11-22T13:25:35;2.78;;;1.38;;
10586;SDS011;5341;47.606;7.576;2022-11-22T13:28:13;2.03;;;1.13;;
10586;SDS011;5341;47.606;7.576;2022-11-22T13:33:33;4.22;;;1.50;;
10586;SDS011;5341;47.606;7.576;2022-11-22T13:38:53;4.30;;;1.30;;
10586;SDS011;5341;47.606;7.576;2022-11-22T13:41:45;5.60;;;1.83;;
10586;SDS011;5341;47.606;7.576;2022-11-22T13:44:25;3.97;;;1.33;;
10586;SDS011;5341;47.606;7.576;2022-11-22T13:47:01;3.80;;;1.50;;
10586;SDS011;5341;47.606;7.576;2022-11-22T13:49:32;3.38;;;1.58;;
10586;SDS011;5341;47.606;7.576;2022-11-22T13:52:02;2.65;;;1.35;;
10586;SDS011;5341;47.606;7.576;2022-11-22T13:57:29;3.17;;;1.63;;
10586;SDS011;5341;47.606;7.576;2022-11-22T14:03:26;3.78;;;1.50;;
10586;SDS011;5341;47.606;7.576;2022-11-22T14:11:52;4.68;;;1.83;;
10586;SDS011;5341;47.606;7.576;2022-11-22T14:14:46;4.80;;;1.75;;
10586;SDS011;5341;47.606;7.576;2022-11-22T14:18:06;4.20;;;1.55;;
10586;SDS011;5341;47.606;7.576;2022-11-22T14:20:56;2.95;;;1.40;;
10586;SDS011;5341;47.606;7.576;2022-11-22T14:23:38;3.60;;;1.52;;
10586;SDS011;5341;47.606;7.576;2022-11-22T14:26:28;6.03;;;1.58;;
10586;SDS011;5341;47.606;7.576;2022-11-22T14:29:27;3.75;;;1.75;;
10586;SDS011;5341;47.606;7.576;2022-11-22T14:32:24;3.25;;;1.65;;
10586;SDS011;5341;47.606;7.576;2022-11-22T14:38:01;6.53;;;1.80;;
10586;SDS011;5341;47.606;7.576;2022-11-22T14:40:45;5.45;;;1.60;;
10586;SDS011;5341;47.606;7.576;2022-11-22T14:43:32;3.35;;;1.67;;
10586;SDS011;5341;47.606;7.576;2022-11-22T14:46:09;3.35;;;1.52;;
10586;SDS011;5341;47.606;7.576;2022-11-22T14:48:45;4.53;;;1.70;;
10586;SDS011;5341;47.606;7.576;2022-11-22T14:51:22;4.80;;;1.95;;
10586;SDS011;5341;47.606;7.576;2022-11-22T14:53:54;4.15;;;1.80;;
10586;SDS011;5341;47.606;7.576;2022-11-22T14:56:26;4.72;;;1.85;;
10586;SDS011;5341;47.606;7.576;2022-11-22T14:59:01;6.20;;;1.80;;
10586;SDS011;5341;47.606;7.576;2022-11-22T15:01:49;4.32;;;1.90;;
10586;SDS011;5341;47.606;7.576;2022-11-22T15:04:37;5.60;;;1.77;;
10586;SDS011;5341;47.606;7.576;2022-11-22T15:07:18;4.72;;;2.00;;
10586;SDS011;5341;47.606;7.576;2022-11-22T15:10:03;5.53;;;2.13;;
10586;SDS011;5341;47.606;7.576;2022-11-22T15:12:53;5.10;;;2.05;;
10586;SDS011;5341;47.606;7.576;2022-11-22T15:15:42;3.58;;;1.98;;
10586;SDS011;5341;47.606;7.576;2022-11-22T15:18:17;3.63;;;1.58;;
10586;SDS011;5341;47.606;7.576;2022-11-22T15:20:50;4.88;;;1.90;;
10586;SDS011;5341;47.606;7.576;2022-11-22T15:23:20;3.70;;;1.70;;
10586;SDS011;5341;47.606;7.576;2022-11-22T15:25:49;4.47;;;1.67;;
10586;SDS011;5341;47.606;7.576;2022-11-22T15:28:26;3.28;;;1.70;;
10586;SDS011;5341;47.606;7.576;2022-11-22T15:30:56;3.60;;;1.70;;
10586;SDS011;5341;47.606;7.576;2022-11-22T15:33:29;5.85;;;2.50;;
10586;SDS011;5341;47.606;7.576;2022-11-22T15:39:00;4.53;;;1.85;;
10586;SDS011;5341;47.606;7.576;2022-11-22T15:41:38;4.38;;;1.80;;
10586;SDS011;5341;47.606;7.576;2022-11-22T15:44:07;2.72;;;1.60;;
10586;SDS011;5341;47.606;7.576;2022-11-22T15:46:39;4.22;;;2.00;;
10586;SDS011;5341;47.606;7.576;2022-11-22T15:49:09;6.30;;;2.15;;
10586;SDS011;5341;47.606;7.576;2022-11-22T15:51:50;4.15;;;1.83;;
10586;SDS011;5341;47.606;7.576;2022-11-22T15:54:21;4.78;;;1.88;;
10586;SDS011;5341;47.606;7.576;2022-11-22T15:56:51;4.05;;;1.70;;
10586;SDS011;5341;47.606;7.576;2022-11-22T15:59:25;4.22;;;2.00;;
10586;SDS011;5341;47.606;7.576;2022-11-22T16:01:56;3.00;;;1.60;;
10586;SDS011;5341;47.606;7.576;2022-11-22T16:04:29;5.45;;;1.80;;
10586;SDS011;5341;47.606;7.576;2022-11-22T16:07:02;5.75;;;2.00;;
10586;SDS011;5341;47.606;7.576;2022-11-22T16:09:34;4.78;;;1.90;;
10586;SDS011;5341;47.606;7.576;2022-11-22T16:12:04;7.47;;;1.98;;
10586;SDS011;5341;47.606;7.576;2022-11-22T16:14:51;8.18;;;2.20;;
10586;SDS011;5341;47.606;7.576;2022-11-22T16:17:21;4.63;;;2.00;;